Terminal Aerodrome Forecast
Issued by NWS Birmingham, AL

Home | Current Version | Previous Version | Text Only | Print | Product List | Glossary On
Versions: 1 2 3 4 5 6 7 8 9 10 11 12 13 14 15
258
FTUS44 KBMX 120539
TAFBHM
TAF
KBHM 120539Z 1206/1306 VRB03KT P6SM BKN250
     FM121500 30008KT P6SM SCT250=

USA.gov is the U.S. government's official web portal to all federal, state and local government web resources and services.